Ozette, WA

8:04 AM PDT on March 23, 2017 (GMT -0700)
Lake Ozette | | Change Station

Elev 125 ft 48.15 °N, 124.66 °W | Updated 15 seconds ago

Overcast
Overcast
44.1 °F
Feels Like 40 °F
N
8.1
Wind Variable Wind from East
Gusts 0.0 mph

Today
High -- | Low -- °F
--% Chance of Precip.
Yesterday
High -- | Low -- °F
Precip. -- in
Pressure 30.00 in
Visibility 10.0 miles
Clouds Mostly Cloudy 4100 ft
Overcast 9000 ft
Windchill 40 °F
Dew Point 34 °F
Humidity 69%
Rainfall 0.00 in
Snow Depth Not available.
7:14 AM 7:36 PM
Waning Crescent, 23% visible
METAR KUIL 231453Z AUTO 13005KT 10SM BKN041 OVC090 06/05 A2999 RMK AO2 RAE15 SLP157 P0000 60012 T00560050 58005
Pressure 30.00 in
Visibility 10.0 miles
Clouds Mostly Cloudy 4100 ft
Overcast 9000 ft
Windchill 40 °F
Dew Point 34 °F
Humidity 69%
Rainfall 0.00 in
Snow Depth Not available.
7:14 AM 7:36 PM
Waning Crescent, 23% visible
METAR KUIL 231453Z AUTO 13005KT 10SM BKN041 OVC090 06/05 A2999 RMK AO2 RAE15 SLP157 P0000 60012 T00560050 58005

Get Severe Weather Alerts

Thanks for signing up!

Be on the lookout for a verification email in your inbox.

You'll start receiving the daily forecast at 8 AM.

×

10-Day Weather Forecast

Almanac

Astronomy

Mar. 23, 2017 Rise Set
Actual Time
Civil Twilight
Nautical Twilight
Astronomical Twilight
Moon
Length of Visible Light
Length of Day
Tomorrow will be .
, % of the Moon is Illuminated

Today's Extremes

State Highs State Lows

Community

WunderPhotos

Upload Photos

1,962,540 photos uploaded!

WunderBlog® & News

Nearby

Air Quality

  Air Quality AQ Index Pollutant
Not available.

Snow Depth

Station Depth Elevation

Earthquake Activity

City Distance Mag. Time & Date
Minimum magnitude displayed is 2.5.

Earthquake Activity

City Distance Mag. Time & Date
Minimum magnitude displayed is 2.5.

Coastal Water Temperatures

Place Temperature

Stations

Nearby Weather Stations

Station Location Temp. Windchill Dew Point Humidity Wind Precip. Elev Updated Type
                   

Watches & Warnings

There are currently no watches in effect.